Terminal Aerodrome Forecast
Issued by NWS

Home | Current Version | Previous Version | Text Only | Print | Product List | Glossary Off
Versions: 1 2 3 4 5 6 7 8 9 10 11 12 13 14 15 16 17 18 19 20 21

000
FTUS42 KMHX 230550
TAFOAJ
TAF
KOAJ 230550Z 2306/2406 21005KT P6SM SCT120
     FM230800 21005KT P6SM SCT007 BKN110
     FM231300 23008G15KT P6SM VCSH SCT020 BKN035
     FM231600 24007G15KT P6SM -SHRA VCTS SCT035CB BKN090
     FM232000 22006KT P6SM SCT030 BKN090
     FM240100 VRB03KT 6SM -SHRA VCTS SCT020 BKN035CB
      AMD LTD TO CLD VIS AND WIND=

USA.gov is the U.S. government's official web portal to all federal, state and local government web resources and services.